sensor_id;sensor_type;location;lat;lon;timestamp;temperature;humidity
13205;DHT22;6667;52.634;9.226;2023-04-25T04:33:51;6.50;1.00
13205;DHT22;6667;52.634;9.226;2023-04-25T04:36:22;6.50;1.00
13205;DHT22;6667;52.634;9.226;2023-04-25T04:39:10;6.50;1.00
13205;DHT22;6667;52.634;9.226;2023-04-25T04:41:39;6.50;1.00
13205;DHT22;6667;52.634;9.226;2023-04-25T04:44:10;6.60;1.00
13205;DHT22;6667;52.634;9.226;2023-04-25T04:47:26;6.50;1.00
13205;DHT22;6667;52.634;9.226;2023-04-25T04:50:09;6.60;1.00
13205;DHT22;6667;52.634;9.226;2023-04-25T04:52:51;6.60;1.00
13205;DHT22;6667;52.634;9.226;2023-04-25T04:55:27;6.60;1.00
13205;DHT22;6667;52.634;9.226;2023-04-25T04:58:22;6.60;1.00
13205;DHT22;6667;52.634;9.226;2023-04-25T05:00:56;6.70;1.00
13205;DHT22;6667;52.634;9.226;2023-04-25T05:03:28;6.70;1.00
13205;DHT22;6667;52.634;9.226;2023-04-25T05:06:12;6.70;1.00
13205;DHT22;6667;52.634;9.226;2023-04-25T05:08:40;6.80;1.00
13205;DHT22;6667;52.634;9.226;2023-04-25T05:11:10;6.80;1.00
13205;DHT22;6667;52.634;9.226;2023-04-25T05:13:58;6.80;1.00
13205;DHT22;6667;52.634;9.226;2023-04-25T05:16:51;6.80;1.00
13205;DHT22;6667;52.634;9.226;2023-04-25T05:22:52;6.80;1.00
13205;DHT22;6667;52.634;9.226;2023-04-25T05:28:50;6.80;1.00
13205;DHT22;6667;52.634;9.226;2023-04-25T05:31:18;6.90;1.00
13205;DHT22;6667;52.634;9.226;2023-04-25T05:34:00;6.90;1.00
13205;DHT22;6667;52.634;9.226;2023-04-25T05:36:27;7.10;1.00
13205;DHT22;6667;52.634;9.226;2023-04-25T05:39:00;7.10;1.00
13205;DHT22;6667;52.634;9.226;2023-04-25T05:45:05;7.20;1.00
13205;DHT22;6667;52.634;9.226;2023-04-25T05:47:45;7.10;1.00
13205;DHT22;6667;52.634;9.226;2023-04-25T05:50:13;7.10;1.00
13205;DHT22;6667;52.634;9.226;2023-04-25T05:52:44;7.20;1.00
13205;DHT22;6667;52.634;9.226;2023-04-25T05:55:28;7.20;99.90
13205;DHT22;6667;52.634;9.226;2023-04-25T05:58:04;7.30;99.90
13205;DHT22;6667;52.634;9.226;2023-04-25T06:00:32;7.30;99.90
13205;DHT22;6667;52.634;9.226;2023-04-25T06:03:13;7.30;99.90
13205;DHT22;6667;52.634;9.226;2023-04-25T06:09:24;7.40;99.90
13205;DHT22;6667;52.634;9.226;2023-04-25T06:12:05;7.40;99.90
13205;DHT22;6667;52.634;9.226;2023-04-25T06:14:34;7.40;99.90
13205;DHT22;6667;52.634;9.226;2023-04-25T06:17:04;7.40;99.90
13205;DHT22;6667;52.634;9.226;2023-04-25T06:19:55;7.40;99.90
13205;DHT22;6667;52.634;9.226;2023-04-25T06:22:27;7.50;99.90
13205;DHT22;6667;52.634;9.226;2023-04-25T06:24:55;7.50;99.90
13205;DHT22;6667;52.634;9.226;2023-04-25T06:27:30;7.50;99.90
13205;DHT22;6667;52.634;9.226;2023-04-25T06:30:33;7.50;99.90
13205;DHT22;6667;52.634;9.226;2023-04-25T06:33:14;7.60;99.90
13205;DHT22;6667;52.634;9.226;2023-04-25T06:35:42;7.70;99.90
13205;DHT22;6667;52.634;9.226;2023-04-25T06:38:19;7.80;99.90
13205;DHT22;6667;52.634;9.226;2023-04-25T06:41:00;7.80;99.90
13205;DHT22;6667;52.634;9.226;2023-04-25T06:46:55;7.80;99.90
13205;DHT22;6667;52.634;9.226;2023-04-25T06:53:00;7.90;99.90
13205;DHT22;6667;52.634;9.226;2023-04-25T06:55:41;8.10;99.90
13205;DHT22;6667;52.634;9.226;2023-04-25T06:58:46;8.20;99.90
13205;DHT22;6667;52.634;9.226;2023-04-25T07:01:43;8.20;99.90
13205;DHT22;6667;52.634;9.226;2023-04-25T07:04:24;8.40;99.90
13205;DHT22;6667;52.634;9.226;2023-04-25T07:07:00;8.60;99.90
13205;DHT22;6667;52.634;9.226;2023-04-25T07:12:53;8.80;99.90
13205;DHT22;6667;52.634;9.226;2023-04-25T07:15:23;9.00;99.90
13205;DHT22;6667;52.634;9.226;2023-04-25T07:17:50;9.20;99.90
13205;DHT22;6667;52.634;9.226;2023-04-25T07:20:17;9.40;99.90
13205;DHT22;6667;52.634;9.226;2023-04-25T07:23:03;9.70;99.90
13205;DHT22;6667;52.634;9.226;2023-04-25T07:25:40;10.10;99.90
13205;DHT22;6667;52.634;9.226;2023-04-25T07:34:44;11.80;99.90
13205;DHT22;6667;52.634;9.226;2023-04-25T07:37:12;12.10;99.90
13205;DHT22;6667;52.634;9.226;2023-04-25T07:39:44;12.00;99.90
13205;DHT22;6667;52.634;9.226;2023-04-25T07:42:29;11.70;99.90
13205;DHT22;6667;52.634;9.226;2023-04-25T07:44:57;11.30;99.90
13205;DHT22;6667;52.634;9.226;2023-04-25T07:47:26;11.30;99.90
13205;DHT22;6667;52.634;9.226;2023-04-25T07:49:53;11.30;99.90
13205;DHT22;6667;52.634;9.226;2023-04-25T07:52:22;11.40;99.90
13205;DHT22;6667;52.634;9.226;2023-04-25T07:54:49;11.70;99.90
13205;DHT22;6667;52.634;9.226;2023-04-25T07:57:17;11.40;99.90
13205;DHT22;6667;52.634;9.226;2023-04-25T07:59:48;11.10;99.90
13205;DHT22;6667;52.634;9.226;2023-04-25T08:02:16;11.10;99.90
13205;DHT22;6667;52.634;9.226;2023-04-25T08:04:45;11.10;99.90
13205;DHT22;6667;52.634;9.226;2023-04-25T08:07:21;10.90;99.90
13205;DHT22;6667;52.634;9.226;2023-04-25T08:13:37;11.00;99.90
13205;DHT22;6667;52.634;9.226;2023-04-25T08:16:18;11.20;99.90
13205;DHT22;6667;52.634;9.226;2023-04-25T08:19:01;10.70;99.90
13205;DHT22;6667;52.634;9.226;2023-04-25T08:28:41;11.50;99.90
13205;DHT22;6667;52.634;9.226;2023-04-25T08:31:09;12.10;99.90
13205;DHT22;6667;52.634;9.226;2023-04-25T08:33:40;13.00;99.90
13205;DHT22;6667;52.634;9.226;2023-04-25T08:36:08;13.30;99.90
13205;DHT22;6667;52.634;9.226;2023-04-25T08:41:48;13.90;99.90
13205;DHT22;6667;52.634;9.226;2023-04-25T08:47:59;15.20;99.90
13205;DHT22;6667;52.634;9.226;2023-04-25T08:50:34;14.70;99.90
13205;DHT22;6667;52.634;9.226;2023-04-25T08:53:09;15.20;99.90
13205;DHT22;6667;52.634;9.226;2023-04-25T08:56:24;14.60;99.90
13205;DHT22;6667;52.634;9.226;2023-04-25T08:58:55;15.10;99.90
13205;DHT22;6667;52.634;9.226;2023-04-25T09:01:22;15.20;99.90
13205;DHT22;6667;52.634;9.226;2023-04-25T09:03:51;15.50;99.90
13205;DHT22;6667;52.634;9.226;2023-04-25T09:06:18;15.30;99.90
13205;DHT22;6667;52.634;9.226;2023-04-25T09:08:45;16.00;99.90
13205;DHT22;6667;52.634;9.226;2023-04-25T09:11:13;15.90;99.90
13205;DHT22;6667;52.634;9.226;2023-04-25T09:13:40;16.10;99.90
13205;DHT22;6667;52.634;9.226;2023-04-25T09:16:06;16.50;99.90
13205;DHT22;6667;52.634;9.226;2023-04-25T09:18:34;16.50;99.90
13205;DHT22;6667;52.634;9.226;2023-04-25T09:21:08;15.80;99.90
13205;DHT22;6667;52.634;9.226;2023-04-25T09:23:40;14.50;99.90
13205;DHT22;6667;52.634;9.226;2023-04-25T09:26:07;14.60;99.90
13205;DHT22;6667;52.634;9.226;2023-04-25T09:28:34;14.50;99.90
13205;DHT22;6667;52.634;9.226;2023-04-25T09:31:03;14.00;99.90
13205;DHT22;6667;52.634;9.226;2023-04-25T09:33:30;13.70;99.90
13205;DHT22;6667;52.634;9.226;2023-04-25T09:36:02;13.60;99.90
13205;DHT22;6667;52.634;9.226;2023-04-25T09:38:31;12.90;99.90
13205;DHT22;6667;52.634;9.226;2023-04-25T09:40:58;12.70;99.90
13205;DHT22;6667;52.634;9.226;2023-04-25T09:43:26;12.90;99.90
13205;DHT22;6667;52.634;9.226;2023-04-25T09:45:54;12.60;99.90
13205;DHT22;6667;52.634;9.226;2023-04-25T09:48:24;12.60;99.90
13205;DHT22;6667;52.634;9.226;2023-04-25T09:51:04;12.40;99.90
13205;DHT22;6667;52.634;9.226;2023-04-25T09:53:33;12.40;99.90
13205;DHT22;6667;52.634;9.226;2023-04-25T09:56:04;12.60;99.90
13205;DHT22;6667;52.634;9.226;2023-04-25T09:58:32;12.50;99.90
13205;DHT22;6667;52.634;9.226;2023-04-25T10:01:00;12.50;99.90
13205;DHT22;6667;52.634;9.226;2023-04-25T10:03:29;12.40;99.90
13205;DHT22;6667;52.634;9.226;2023-04-25T10:05:58;12.60;99.90
13205;DHT22;6667;52.634;9.226;2023-04-25T10:08:28;12.90;99.90
13205;DHT22;6667;52.634;9.226;2023-04-25T10:10:59;13.00;99.90
13205;DHT22;6667;52.634;9.226;2023-04-25T10:13:27;13.10;99.90
13205;DHT22;6667;52.634;9.226;2023-04-25T10:15:55;13.60;99.90
13205;DHT22;6667;52.634;9.226;2023-04-25T10:18:24;13.70;99.90
13205;DHT22;6667;52.634;9.226;2023-04-25T10:20:51;14.60;99.90
13205;DHT22;6667;52.634;9.226;2023-04-25T10:23:18;15.40;99.90
13205;DHT22;6667;52.634;9.226;2023-04-25T10:25:45;15.00;99.90
13205;DHT22;6667;52.634;9.226;2023-04-25T10:28:13;14.60;99.90
13205;DHT22;6667;52.634;9.226;2023-04-25T10:30:57;14.10;99.90
13205;DHT22;6667;52.634;9.226;2023-04-25T10:33:30;13.80;99.90
13205;DHT22;6667;52.634;9.226;2023-04-25T10:35:58;13.10;99.90
13205;DHT22;6667;52.634;9.226;2023-04-25T10:38:26;12.70;99.90
13205;DHT22;6667;52.634;9.226;2023-04-25T10:41:03;11.80;99.90
13205;DHT22;6667;52.634;9.226;2023-04-25T10:43:38;11.00;99.90
13205;DHT22;6667;52.634;9.226;2023-04-25T10:46:19;11.10;99.90
13205;DHT22;6667;52.634;9.226;2023-04-25T10:48:49;11.30;99.90
13205;DHT22;6667;52.634;9.226;2023-04-25T10:51:21;11.50;99.90
13205;DHT22;6667;52.634;9.226;2023-04-25T10:53:57;11.30;99.90
13205;DHT22;6667;52.634;9.226;2023-04-25T10:56:26;11.50;99.90
13205;DHT22;6667;52.634;9.226;2023-04-25T10:59:04;11.60;99.90
13205;DHT22;6667;52.634;9.226;2023-04-25T11:01:36;11.80;99.90
13205;DHT22;6667;52.634;9.226;2023-04-25T11:04:03;12.00;99.90
13205;DHT22;6667;52.634;9.226;2023-04-25T11:06:36;12.20;99.90
13205;DHT22;6667;52.634;9.226;2023-04-25T11:09:10;12.00;99.90
13205;DHT22;6667;52.634;9.226;2023-04-25T11:11:38;12.30;99.90
13205;DHT22;6667;52.634;9.226;2023-04-25T11:14:06;12.50;99.90
13205;DHT22;6667;52.634;9.226;2023-04-25T11:16:33;12.60;99.90
13205;DHT22;6667;52.634;9.226;2023-04-25T11:19:01;12.50;99.90
13205;DHT22;6667;52.634;9.226;2023-04-25T11:21:29;13.00;99.90
13205;DHT22;6667;52.634;9.226;2023-04-25T11:23:57;13.60;99.90
13205;DHT22;6667;52.634;9.226;2023-04-25T11:26:24;14.00;99.90
13205;DHT22;6667;52.634;9.226;2023-04-25T11:28:51;14.20;99.90
13205;DHT22;6667;52.634;9.226;2023-04-25T11:31:21;14.20;99.90
13205;DHT22;6667;52.634;9.226;2023-04-25T11:33:48;13.60;99.90
13205;DHT22;6667;52.634;9.226;2023-04-25T11:36:14;13.80;99.90
13205;DHT22;6667;52.634;9.226;2023-04-25T11:38:41;13.20;99.90
13205;DHT22;6667;52.634;9.226;2023-04-25T11:41:08;12.10;99.90
13205;DHT22;6667;52.634;9.226;2023-04-25T11:43:34;11.80;99.90
13205;DHT22;6667;52.634;9.226;2023-04-25T11:46:01;11.70;99.90
13205;DHT22;6667;52.634;9.226;2023-04-25T11:48:38;11.20;99.90
13205;DHT22;6667;52.634;9.226;2023-04-25T11:51:04;11.60;99.90
13205;DHT22;6667;52.634;9.226;2023-04-25T11:53:31;11.60;99.90
13205;DHT22;6667;52.634;9.226;2023-04-25T11:55:58;11.50;99.90
13205;DHT22;6667;52.634;9.226;2023-04-25T11:58:25;11.50;99.90
13205;DHT22;6667;52.634;9.226;2023-04-25T12:00:52;11.70;99.90
13205;DHT22;6667;52.634;9.226;2023-04-25T12:03:19;11.80;99.90
13205;DHT22;6667;52.634;9.226;2023-04-25T12:05:48;11.80;99.90
13205;DHT22;6667;52.634;9.226;2023-04-25T12:08:16;11.80;99.90
13205;DHT22;6667;52.634;9.226;2023-04-25T12:10:45;12.20;99.90
13205;DHT22;6667;52.634;9.226;2023-04-25T12:13:20;12.30;99.90
13205;DHT22;6667;52.634;9.226;2023-04-25T12:15:47;12.20;99.90
13205;DHT22;6667;52.634;9.226;2023-04-25T12:18:14;12.10;99.90
13205;DHT22;6667;52.634;9.226;2023-04-25T12:20:41;12.30;99.90
13205;DHT22;6667;52.634;9.226;2023-04-25T12:23:09;12.30;99.90
13205;DHT22;6667;52.634;9.226;2023-04-25T12:25:38;12.70;99.90
13205;DHT22;6667;52.634;9.226;2023-04-25T12:28:13;12.70;99.90
13205;DHT22;6667;52.634;9.226;2023-04-25T12:30:54;13.10;99.90
13205;DHT22;6667;52.634;9.226;2023-04-25T12:33:21;13.00;99.90
13205;DHT22;6667;52.634;9.226;2023-04-25T12:35:49;13.10;99.90
13205;DHT22;6667;52.634;9.226;2023-04-25T12:38:26;13.20;99.90
13205;DHT22;6667;52.634;9.226;2023-04-25T12:40:55;13.20;99.90
13205;DHT22;6667;52.634;9.226;2023-04-25T12:43:22;13.70;99.90
13205;DHT22;6667;52.634;9.226;2023-04-25T12:45:49;13.30;99.90
13205;DHT22;6667;52.634;9.226;2023-04-25T12:48:16;13.40;99.90
13205;DHT22;6667;52.634;9.226;2023-04-25T12:50:43;13.30;99.90
13205;DHT22;6667;52.634;9.226;2023-04-25T12:53:10;13.10;99.90
13205;DHT22;6667;52.634;9.226;2023-04-25T12:55:39;12.30;99.90
13205;DHT22;6667;52.634;9.226;2023-04-25T12:58:05;11.80;99.90
13205;DHT22;6667;52.634;9.226;2023-04-25T13:00:32;11.20;99.90
13205;DHT22;6667;52.634;9.226;2023-04-25T13:02:59;11.10;99.90
13205;DHT22;6667;52.634;9.226;2023-04-25T13:05:26;10.90;99.90
13205;DHT22;6667;52.634;9.226;2023-04-25T13:07:52;10.20;99.90
13205;DHT22;6667;52.634;9.226;2023-04-25T13:10:19;10.50;99.90
13205;DHT22;6667;52.634;9.226;2023-04-25T13:12:48;11.00;99.90
13205;DHT22;6667;52.634;9.226;2023-04-25T13:15:14;11.50;99.90
13205;DHT22;6667;52.634;9.226;2023-04-25T13:17:42;12.00;99.90
13205;DHT22;6667;52.634;9.226;2023-04-25T13:20:09;12.30;99.90
13205;DHT22;6667;52.634;9.226;2023-04-25T13:22:37;11.90;99.90
13205;DHT22;6667;52.634;9.226;2023-04-25T13:25:05;12.00;99.90
13205;DHT22;6667;52.634;9.226;2023-04-25T13:27:32;12.00;99.90
13205;DHT22;6667;52.634;9.226;2023-04-25T13:30:00;12.10;99.90
13205;DHT22;6667;52.634;9.226;2023-04-25T13:32:32;12.30;99.90
13205;DHT22;6667;52.634;9.226;2023-04-25T13:34:59;12.30;99.90
13205;DHT22;6667;52.634;9.226;2023-04-25T13:37:26;12.20;99.90
13205;DHT22;6667;52.634;9.226;2023-04-25T13:39:52;12.40;99.90
13205;DHT22;6667;52.634;9.226;2023-04-25T13:42:20;12.80;99.90
13205;DHT22;6667;52.634;9.226;2023-04-25T13:44:47;13.20;99.90
13205;DHT22;6667;52.634;9.226;2023-04-25T13:47:15;12.70;99.90
13205;DHT22;6667;52.634;9.226;2023-04-25T13:49:41;12.50;99.90
13205;DHT22;6667;52.634;9.226;2023-04-25T13:52:08;12.50;99.90
13205;DHT22;6667;52.634;9.226;2023-04-25T13:54:35;12.20;99.90
13205;DHT22;6667;52.634;9.226;2023-04-25T13:57:01;11.40;99.90
13205;DHT22;6667;52.634;9.226;2023-04-25T13:59:28;11.10;99.90
13205;DHT22;6667;52.634;9.226;2023-04-25T14:01:55;11.20;99.90
13205;DHT22;6667;52.634;9.226;2023-04-25T14:04:22;11.30;99.90
13205;DHT22;6667;52.634;9.226;2023-04-25T14:06:50;11.70;99.90
13205;DHT22;6667;52.634;9.226;2023-04-25T14:09:18;11.90;99.90
13205;DHT22;6667;52.634;9.226;2023-04-25T14:11:46;12.00;99.90
13205;DHT22;6667;52.634;9.226;2023-04-25T14:14:12;12.00;99.90
13205;DHT22;6667;52.634;9.226;2023-04-25T14:16:41;12.00;99.90
13205;DHT22;6667;52.634;9.226;2023-04-25T14:19:08;11.90;99.90
13205;DHT22;6667;52.634;9.226;2023-04-25T14:21:36;11.70;99.90
13205;DHT22;6667;52.634;9.226;2023-04-25T14:24:03;11.60;99.90
13205;DHT22;6667;52.634;9.226;2023-04-25T14:26:30;11.30;99.90
13205;DHT22;6667;52.634;9.226;2023-04-25T14:28:56;11.20;99.90
13205;DHT22;6667;52.634;9.226;2023-04-25T14:31:23;11.40;99.90
13205;DHT22;6667;52.634;9.226;2023-04-25T14:33:50;11.40;99.90
13205;DHT22;6667;52.634;9.226;2023-04-25T14:36:16;11.40;99.90
13205;DHT22;6667;52.634;9.226;2023-04-25T14:38:44;11.30;99.90
13205;DHT22;6667;52.634;9.226;2023-04-25T14:41:11;11.50;99.90
13205;DHT22;6667;52.634;9.226;2023-04-25T14:43:37;11.50;99.90
13205;DHT22;6667;52.634;9.226;2023-04-25T14:46:05;11.40;99.90
13205;DHT22;6667;52.634;9.226;2023-04-25T14:48:32;11.40;99.90
13205;DHT22;6667;52.634;9.226;2023-04-25T14:50:59;11.40;99.90
13205;DHT22;6667;52.634;9.226;2023-04-25T14:53:26;11.40;99.90
13205;DHT22;6667;52.634;9.226;2023-04-25T14:55:54;11.50;99.90
13205;DHT22;6667;52.634;9.226;2023-04-25T14:58:21;11.80;99.90
13205;DHT22;6667;52.634;9.226;2023-04-25T15:00:48;11.80;99.90
13205;DHT22;6667;52.634;9.226;2023-04-25T15:03:15;11.40;99.90
13205;DHT22;6667;52.634;9.226;2023-04-25T15:05:42;11.50;99.90
13205;DHT22;6667;52.634;9.226;2023-04-25T15:08:09;11.50;99.90
13205;DHT22;6667;52.634;9.226;2023-04-25T15:10:36;11.50;99.90
13205;DHT22;6667;52.634;9.226;2023-04-25T15:13:04;11.50;99.90
13205;DHT22;6667;52.634;9.226;2023-04-25T15:15:31;11.40;99.90
13205;DHT22;6667;52.634;9.226;2023-04-25T15:17:58;11.30;99.90
13205;DHT22;6667;52.634;9.226;2023-04-25T15:20:25;11.30;99.90
13205;DHT22;6667;52.634;9.226;2023-04-25T15:22:53;11.40;99.90
13205;DHT22;6667;52.634;9.226;2023-04-25T15:25:19;11.40;99.90
13205;DHT22;6667;52.634;9.226;2023-04-25T15:27:46;11.50;99.90
13205;DHT22;6667;52.634;9.226;2023-04-25T15:30:16;11.70;99.90
13205;DHT22;6667;52.634;9.226;2023-04-25T15:32:43;11.70;99.90
13205;DHT22;6667;52.634;9.226;2023-04-25T15:35:11;11.60;99.90
13205;DHT22;6667;52.634;9.226;2023-04-25T15:37:38;11.20;99.90
13205;DHT22;6667;52.634;9.226;2023-04-25T15:40:07;11.10;99.90
13205;DHT22;6667;52.634;9.226;2023-04-25T15:42:35;10.80;99.90
13205;DHT22;6667;52.634;9.226;2023-04-25T15:45:02;10.60;99.90
13205;DHT22;6667;52.634;9.226;2023-04-25T15:47:30;10.50;99.90
13205;DHT22;6667;52.634;9.226;2023-04-25T15:49:56;10.40;99.90
13205;DHT22;6667;52.634;9.226;2023-04-25T15:52:23;10.40;99.90
13205;DHT22;6667;52.634;9.226;2023-04-25T15:54:50;10.20;99.90
13205;DHT22;6667;52.634;9.226;2023-04-25T15:57:17;10.10;99.90
13205;DHT22;6667;52.634;9.226;2023-04-25T15:59:43;10.00;99.90
13205;DHT22;6667;52.634;9.226;2023-04-25T16:02:12;10.00;99.90
13205;DHT22;6667;52.634;9.226;2023-04-25T16:04:40;9.90;99.90
13205;DHT22;6667;52.634;9.226;2023-04-25T16:07:07;9.70;99.90
13205;DHT22;6667;52.634;9.226;2023-04-25T16:09:34;9.70;99.90
13205;DHT22;6667;52.634;9.226;2023-04-25T16:12:00;9.80;99.90
13205;DHT22;6667;52.634;9.226;2023-04-25T16:14:27;9.70;99.90
13205;DHT22;6667;52.634;9.226;2023-04-25T16:16:54;9.70;99.90
13205;DHT22;6667;52.634;9.226;2023-04-25T16:19:21;9.90;99.90
13205;DHT22;6667;52.634;9.226;2023-04-25T16:21:49;10.10;99.90
13205;DHT22;6667;52.634;9.226;2023-04-25T16:24:16;9.90;99.90
13205;DHT22;6667;52.634;9.226;2023-04-25T16:26:43;9.90;99.90
13205;DHT22;6667;52.634;9.226;2023-04-25T16:29:10;9.80;99.90
13205;DHT22;6667;52.634;9.226;2023-04-25T16:31:38;9.80;99.90
13205;DHT22;6667;52.634;9.226;2023-04-25T16:34:06;9.90;99.90
13205;DHT22;6667;52.634;9.226;2023-04-25T16:36:33;9.90;99.90
13205;DHT22;6667;52.634;9.226;2023-04-25T16:39:01;9.90;99.90
13205;DHT22;6667;52.634;9.226;2023-04-25T16:41:28;10.00;99.90
13205;DHT22;6667;52.634;9.226;2023-04-25T16:43:55;10.00;99.90
13205;DHT22;6667;52.634;9.226;2023-04-25T16:46:21;9.90;99.90
13205;DHT22;6667;52.634;9.226;2023-04-25T16:48:49;9.70;99.90
13205;DHT22;6667;52.634;9.226;2023-04-25T16:51:18;9.60;99.90
13205;DHT22;6667;52.634;9.226;2023-04-25T16:53:49;9.50;99.90
13205;DHT22;6667;52.634;9.226;2023-04-25T16:56:26;9.50;99.90
13205;DHT22;6667;52.634;9.226;2023-04-25T17:05:24;9.10;99.90
13205;DHT22;6667;52.634;9.226;2023-04-25T17:08:00;9.20;99.90
13205;DHT22;6667;52.634;9.226;2023-04-25T17:10:51;9.30;99.90
13205;DHT22;6667;52.634;9.226;2023-04-25T17:13:28;9.10;99.90
13205;DHT22;6667;52.634;9.226;2023-04-25T17:16:08;9.00;99.90
13205;DHT22;6667;52.634;9.226;2023-04-25T17:22:23;9.00;99.90
13205;DHT22;6667;52.634;9.226;2023-04-25T17:28:48;8.80;99.90
13205;DHT22;6667;52.634;9.226;2023-04-25T17:31:35;8.60;99.90
13205;DHT22;6667;52.634;9.226;2023-04-25T17:34:03;8.70;99.90
13205;DHT22;6667;52.634;9.226;2023-04-25T17:36:50;8.80;99.90
13205;DHT22;6667;52.634;9.226;2023-04-25T17:45:32;8.60;99.90
13205;DHT22;6667;52.634;9.226;2023-04-25T17:54:48;8.40;99.90
13205;DHT22;6667;52.634;9.226;2023-04-25T17:57:22;8.30;99.90
13205;DHT22;6667;52.634;9.226;2023-04-25T18:00:09;8.30;99.90
13205;DHT22;6667;52.634;9.226;2023-04-25T18:23:25;7.90;99.90
13205;DHT22;6667;52.634;9.226;2023-04-25T18:32:53;7.60;99.90
13205;DHT22;6667;52.634;9.226;2023-04-25T18:45:38;7.50;99.90
13205;DHT22;6667;52.634;9.226;2023-04-25T18:51:25;7.50;99.90
13205;DHT22;6667;52.634;9.226;2023-04-25T18:57:20;7.40;99.90
13205;DHT22;6667;52.634;9.226;2023-04-25T19:04:19;7.30;99.90
13205;DHT22;6667;52.634;9.226;2023-04-25T19:35:20;7.10;99.90
13205;DHT22;6667;52.634;9.226;2023-04-25T20:09:03;6.60;99.90
13205;DHT22;6667;52.634;9.226;2023-04-25T20:53:26;6.10;99.90
13205;DHT22;6667;52.634;9.226;2023-04-25T21:00:01;5.90;99.90
13205;DHT22;6667;52.634;9.226;2023-04-25T21:06:34;5.80;99.90
